createdAt,value
2023-02-03T00:01:05.441Z,6.20
2023-02-03T00:03:38.165Z,2.67
2023-02-03T00:06:08.477Z,6.88
2023-02-03T00:08:39.395Z,6.88
2023-02-03T00:11:09.763Z,6.88
2023-02-03T00:13:40.048Z,7.18
2023-02-03T00:16:10.823Z,6.63
2023-02-03T00:18:43.602Z,8.75
2023-02-03T00:21:15.215Z,6.07
2023-02-03T00:23:45.420Z,10.15
2023-02-03T00:26:17.276Z,8.77
2023-02-03T00:28:48.251Z,7.07
2023-02-03T00:31:19.735Z,10.40
2023-02-03T00:33:57.311Z,8.32
2023-02-03T00:36:27.918Z,6.28
2023-02-03T00:38:58.063Z,5.78
2023-02-03T00:41:33.281Z,7.53
2023-02-03T00:44:03.399Z,8.00
2023-02-03T00:46:36.228Z,7.00
2023-02-03T00:49:09.319Z,8.23
2023-02-03T00:51:39.556Z,6.45
2023-02-03T00:54:10.720Z,5.00
2023-02-03T00:59:10.566Z,6.28
2023-02-03T01:01:40.800Z,6.68
2023-02-03T01:04:13.414Z,5.70
2023-02-03T01:06:43.945Z,5.40
2023-02-03T01:09:14.041Z,5.47
2023-02-03T01:11:44.318Z,9.25
2023-02-03T01:14:14.721Z,4.65
2023-02-03T01:16:44.979Z,11.50
2023-02-03T01:19:17.762Z,3.75
2023-02-03T01:21:48.069Z,6.60
2023-02-03T01:24:18.431Z,4.70
2023-02-03T01:26:48.519Z,4.78
2023-02-03T01:29:18.625Z,6.05
2023-02-03T01:31:49.086Z,4.55
2023-02-03T01:34:21.869Z,4.82
2023-02-03T01:36:52.140Z,6.80
2023-02-03T01:39:22.768Z,5.05
2023-02-03T01:41:52.792Z,5.30
2023-02-03T01:44:41.326Z,4.00
2023-02-03T01:47:20.470Z,4.53
2023-02-03T01:49:59.410Z,4.78
2023-02-03T01:52:30.648Z,8.23
2023-02-03T01:57:37.319Z,4.18
2023-02-03T02:00:10.957Z,4.28
2023-02-03T02:02:41.260Z,2.88
2023-02-03T02:05:20.573Z,8.50
2023-02-03T02:07:51.509Z,5.88
2023-02-03T02:10:21.788Z,6.65
2023-02-03T02:12:52.085Z,7.25
2023-02-03T02:15:26.887Z,5.63
2023-02-03T02:18:13.085Z,5.90
2023-02-03T02:21:25.807Z,3.25
2023-02-03T02:24:18.749Z,4.85
2023-02-03T02:27:03.254Z,6.43
2023-02-03T02:30:14.829Z,7.22
2023-02-03T02:32:58.722Z,3.88
2023-02-03T02:35:42.256Z,7.32
2023-02-03T02:38:23.275Z,5.95
2023-02-03T02:40:59.472Z,3.08
2023-02-03T02:43:37.393Z,5.63
2023-02-03T02:46:14.818Z,3.00
2023-02-03T02:48:53.188Z,5.38
2023-02-03T02:51:25.207Z,4.20
2023-02-03T02:53:59.783Z,3.72
2023-02-03T02:56:31.718Z,5.70
2023-02-03T02:59:05.390Z,5.47
2023-02-03T03:01:35.860Z,2.00
2023-02-03T03:04:10.685Z,3.95
2023-02-03T03:06:46.372Z,5.95
2023-02-03T03:09:19.905Z,2.58
2023-02-03T03:11:53.196Z,2.70
2023-02-03T03:14:26.217Z,3.70
2023-02-03T03:17:00.562Z,4.28
2023-02-03T03:19:37.527Z,5.82
2023-02-03T03:22:10.720Z,4.13
2023-02-03T03:24:46.649Z,4.05
2023-02-03T03:27:19.791Z,3.97
2023-02-03T03:29:54.812Z,4.30
2023-02-03T03:32:25.273Z,4.53
2023-02-03T03:34:58.843Z,2.17
2023-02-03T03:37:35.397Z,5.05
2023-02-03T03:40:12.086Z,1.83
2023-02-03T03:42:48.600Z,5.10
2023-02-03T03:45:22.920Z,5.30
2023-02-03T03:47:58.101Z,5.38
2023-02-03T03:50:34.668Z,4.32
2023-02-03T03:53:07.202Z,4.43
2023-02-03T03:55:39.364Z,3.35
2023-02-03T03:58:13.601Z,2.92
2023-02-03T04:00:46.083Z,3.63
2023-02-03T04:03:19.317Z,3.28
2023-02-03T04:05:52.641Z,3.45
2023-02-03T04:08:22.656Z,3.97
2023-02-03T04:10:52.823Z,3.05
2023-02-03T04:13:22.905Z,2.92
2023-02-03T04:15:53.107Z,3.30
2023-02-03T04:18:23.128Z,4.00
2023-02-03T04:20:55.997Z,3.40
2023-02-03T04:23:25.972Z,4.60
2023-02-03T04:25:56.308Z,2.90
2023-02-03T04:28:26.313Z,3.80
2023-02-03T04:30:56.745Z,5.97
2023-02-03T04:33:26.838Z,4.07
2023-02-03T04:35:59.519Z,2.67
2023-02-03T04:38:29.626Z,2.42
2023-02-03T04:40:59.787Z,5.45
2023-02-03T04:43:29.975Z,2.95
2023-02-03T04:46:02.500Z,4.43
2023-02-03T04:48:32.645Z,4.35
2023-02-03T04:51:09.042Z,3.75
2023-02-03T04:53:39.187Z,3.60
2023-02-03T04:56:09.827Z,3.08
2023-02-03T04:58:40.356Z,2.33
2023-02-03T05:01:11.583Z,3.55
2023-02-03T05:06:14.289Z,4.60
2023-02-03T05:08:44.312Z,3.72
2023-02-03T05:11:14.572Z,3.88
2023-02-03T05:13:44.566Z,3.75
2023-02-03T05:16:14.733Z,4.53
2023-02-03T05:18:44.962Z,4.88
2023-02-03T05:21:17.724Z,5.40
2023-02-03T05:23:47.945Z,2.47
2023-02-03T05:26:18.132Z,3.55
2023-02-03T05:28:48.238Z,3.33
2023-02-03T05:31:18.478Z,3.97
2023-02-03T05:33:48.643Z,2.25
2023-02-03T05:36:21.371Z,2.30
2023-02-03T05:38:51.473Z,2.63
2023-02-03T05:41:39.555Z,2.33
2023-02-03T05:44:09.687Z,2.15
2023-02-03T05:46:39.977Z,2.05
2023-02-03T05:49:12.849Z,3.28
2023-02-03T05:51:46.227Z,4.50
2023-02-03T05:54:16.438Z,5.25
2023-02-03T05:56:46.795Z,3.78
2023-02-03T05:59:16.826Z,5.47
2023-02-03T06:01:47.029Z,3.63
2023-02-03T06:04:17.065Z,3.80
2023-02-03T06:06:49.882Z,4.05
2023-02-03T06:09:19.914Z,6.85
2023-02-03T06:11:49.982Z,5.05
2023-02-03T06:14:20.069Z,4.75
2023-02-03T06:16:50.311Z,3.70
2023-02-03T06:19:20.611Z,6.13
2023-02-03T06:21:53.502Z,5.90
2023-02-03T06:24:23.499Z,3.83
2023-02-03T06:26:53.766Z,2.08
2023-02-03T06:29:23.746Z,5.70
2023-02-03T06:31:53.875Z,3.58
2023-02-03T06:34:23.972Z,2.38
2023-02-03T06:36:56.730Z,3.97
2023-02-03T06:39:26.805Z,5.28
2023-02-03T06:41:57.030Z,4.50
2023-02-03T06:44:27.091Z,3.00
2023-02-03T06:46:58.846Z,3.65
2023-02-03T06:49:28.984Z,2.63
2023-02-03T06:52:01.664Z,4.22
2023-02-03T06:54:31.777Z,2.47
2023-02-03T06:57:01.966Z,4.82
2023-02-03T06:59:32.235Z,5.60
2023-02-03T07:02:02.462Z,6.28
2023-02-03T07:04:32.950Z,5.97
2023-02-03T07:07:05.607Z,2.70
2023-02-03T07:09:35.581Z,5.45
2023-02-03T07:12:05.671Z,3.70
2023-02-03T07:14:36.158Z,3.10
2023-02-03T07:17:06.643Z,5.72
2023-02-03T07:19:36.650Z,3.70
2023-02-03T07:22:09.341Z,3.17
2023-02-03T07:24:39.379Z,5.88
2023-02-03T07:27:09.690Z,5.13
2023-02-03T07:29:39.883Z,5.05
2023-02-03T07:32:10.013Z,2.85
2023-02-03T07:34:40.300Z,4.25
2023-02-03T07:37:12.991Z,8.35
2023-02-03T07:39:43.309Z,3.95
2023-02-03T07:42:13.340Z,4.10
2023-02-03T07:44:43.392Z,3.78
2023-02-03T07:47:13.452Z,6.07
2023-02-03T07:49:43.655Z,4.28
2023-02-03T07:52:16.553Z,2.95
2023-02-03T07:54:48.662Z,1.33
2023-02-03T07:57:18.930Z,5.15
2023-02-03T07:59:49.140Z,5.25
2023-02-03T08:02:19.201Z,7.55
2023-02-03T08:04:49.571Z,4.88
2023-02-03T08:07:22.334Z,2.78
2023-02-03T08:09:52.432Z,5.70
2023-02-03T08:12:23.017Z,7.85
2023-02-03T08:14:53.230Z,2.85
2023-02-03T08:17:23.259Z,4.78
2023-02-03T08:19:53.281Z,4.43
2023-02-03T08:22:25.934Z,6.03
2023-02-03T08:24:55.978Z,4.85
2023-02-03T08:27:26.490Z,3.25
2023-02-03T08:29:56.546Z,2.88
2023-02-03T08:32:26.768Z,3.00
2023-02-03T08:34:57.271Z,3.63
2023-02-03T08:37:31.940Z,3.85
2023-02-03T08:40:02.513Z,3.30
2023-02-03T08:42:32.777Z,3.42
2023-02-03T08:45:05.102Z,5.60
2023-02-03T08:47:36.987Z,4.68
2023-02-03T08:50:07.865Z,4.65
2023-02-03T08:52:56.973Z,8.57
2023-02-03T08:55:27.086Z,5.88
2023-02-03T08:57:57.582Z,7.40
2023-02-03T09:00:28.418Z,2.50
2023-02-03T09:02:58.836Z,4.57
2023-02-03T09:05:29.063Z,4.82
2023-02-03T09:08:01.815Z,4.78
2023-02-03T09:10:32.101Z,3.30
2023-02-03T09:13:02.399Z,7.20
2023-02-03T09:15:32.621Z,7.97
2023-02-03T09:18:03.235Z,5.25
2023-02-03T09:20:33.669Z,5.18
2023-02-03T09:23:06.828Z,2.22
2023-02-03T09:25:36.974Z,4.07
2023-02-03T09:28:07.145Z,3.22
2023-02-03T09:30:37.497Z,3.17
2023-02-03T09:33:07.682Z,6.35
2023-02-03T09:35:37.779Z,5.25
2023-02-03T09:38:10.487Z,6.00
2023-02-03T09:40:42.429Z,6.93
2023-02-03T09:43:21.116Z,5.65
2023-02-03T09:45:51.667Z,5.85
2023-02-03T09:48:26.711Z,4.13
2023-02-03T09:50:57.581Z,6.30
2023-02-03T09:53:36.133Z,2.85
2023-02-03T09:56:06.699Z,5.97
2023-02-03T09:58:38.174Z,4.20
2023-02-03T10:01:13.456Z,5.75
2023-02-03T10:03:48.947Z,4.85
2023-02-03T10:06:25.251Z,4.50
2023-02-03T10:09:28.418Z,8.68
2023-02-03T10:12:07.366Z,5.82
2023-02-03T10:14:49.784Z,5.45
2023-02-03T10:17:30.657Z,6.47
2023-02-03T10:20:06.962Z,7.78
2023-02-03T10:22:43.784Z,6.38
2023-02-03T10:25:25.304Z,6.32
2023-02-03T10:27:58.640Z,7.30
2023-02-03T10:30:31.062Z,7.50
2023-02-03T10:33:11.945Z,5.15
2023-02-03T10:35:51.805Z,5.18
2023-02-03T10:38:35.560Z,5.70
2023-02-03T10:41:08.522Z,3.90
2023-02-03T10:43:51.894Z,3.70
2023-02-03T10:46:24.536Z,5.30
2023-02-03T10:48:54.626Z,5.78
2023-02-03T10:51:30.067Z,4.28
2023-02-03T10:54:00.384Z,6.15
2023-02-03T10:56:35.745Z,4.07
2023-02-03T10:59:07.430Z,2.70
2023-02-03T11:01:44.954Z,4.35
2023-02-03T11:04:28.789Z,5.93
2023-02-03T11:07:02.036Z,7.30
2023-02-03T11:09:36.027Z,4.60
2023-02-03T11:12:16.846Z,9.52
2023-02-03T11:14:48.660Z,6.90
2023-02-03T11:17:23.135Z,5.80
2023-02-03T11:19:54.644Z,9.40
2023-02-03T11:22:33.824Z,4.00
2023-02-03T11:25:06.833Z,4.75
2023-02-03T11:27:39.577Z,2.60
2023-02-03T11:30:18.261Z,5.32
2023-02-03T11:32:50.254Z,6.05
2023-02-03T11:35:24.089Z,6.47
2023-02-03T11:37:55.986Z,6.25
2023-02-03T11:40:29.642Z,4.90
2023-02-03T11:43:07.788Z,5.25
2023-02-03T11:45:43.164Z,3.67
2023-02-03T11:48:30.654Z,7.22
2023-02-03T11:51:07.332Z,3.67
2023-02-03T11:53:57.164Z,9.18
2023-02-03T11:56:35.353Z,5.78
2023-02-03T11:59:31.689Z,3.92
2023-02-03T12:02:32.192Z,3.33
2023-02-03T12:05:35.829Z,2.78
2023-02-03T12:08:16.367Z,2.38
2023-02-03T12:10:57.778Z,6.38
2023-02-03T12:13:48.926Z,5.45
2023-02-03T12:16:40.573Z,5.45
2023-02-03T12:19:22.453Z,4.03
2023-02-03T12:21:58.980Z,3.80
2023-02-03T12:24:40.182Z,6.25
2023-02-03T12:27:25.292Z,3.00
2023-02-03T12:30:00.620Z,6.45
2023-02-03T12:32:40.448Z,7.00
2023-02-03T12:35:19.460Z,5.20
2023-02-03T12:37:55.325Z,5.05
2023-02-03T12:40:36.302Z,3.85
2023-02-03T12:43:20.348Z,7.70
2023-02-03T12:45:57.139Z,3.38
2023-02-03T12:48:35.836Z,3.58
2023-02-03T12:51:11.497Z,3.95
2023-02-03T12:53:49.527Z,4.93
2023-02-03T12:56:25.492Z,3.92
2023-02-03T12:58:58.453Z,4.35
2023-02-03T13:01:33.723Z,3.55
2023-02-03T13:04:11.700Z,4.05
2023-02-03T13:06:57.499Z,5.40
2023-02-03T13:09:34.471Z,4.22
2023-02-03T13:12:09.848Z,5.20
2023-02-03T13:14:44.016Z,5.82
2023-02-03T13:17:20.135Z,4.28
2023-02-03T13:19:55.884Z,8.55
2023-02-03T13:22:26.867Z,7.35
2023-02-03T13:25:02.731Z,8.32
2023-02-03T13:27:48.111Z,5.47
2023-02-03T13:30:47.241Z,4.82
2023-02-03T13:33:38.564Z,4.90
2023-02-03T13:36:35.855Z,5.30
2023-02-03T13:39:32.750Z,3.13
2023-02-03T13:42:22.284Z,6.63
2023-02-03T13:44:56.484Z,3.40
2023-02-03T13:47:29.671Z,7.90
2023-02-03T13:50:03.733Z,3.10
2023-02-03T13:52:41.466Z,5.18
2023-02-03T13:55:12.153Z,5.05
2023-02-03T13:57:42.410Z,5.57
2023-02-03T14:01:08.644Z,5.65
2023-02-03T14:03:45.709Z,7.68
2023-02-03T14:07:03.212Z,5.85
2023-02-03T14:09:49.719Z,5.40
2023-02-03T14:12:45.597Z,5.68
2023-02-03T14:15:32.363Z,5.70
2023-02-03T14:18:36.476Z,3.40
2023-02-03T14:24:05.422Z,5.47
2023-02-03T14:26:42.547Z,5.22
2023-02-03T14:29:26.217Z,8.02
2023-02-03T14:32:00.207Z,4.03
2023-02-03T14:34:36.670Z,8.43
2023-02-03T14:37:19.953Z,3.90
2023-02-03T14:40:22.213Z,7.20
2023-02-03T14:43:25.054Z,7.47
2023-02-03T14:46:26.677Z,7.75
2023-02-03T14:49:24.751Z,5.80
2023-02-03T14:52:07.868Z,4.25
2023-02-03T14:54:54.412Z,7.88
2023-02-03T14:57:38.717Z,5.78
2023-02-03T15:03:22.956Z,4.70
2023-02-03T15:05:54.403Z,7.30
2023-02-03T15:08:42.738Z,5.90
2023-02-03T15:11:35.423Z,3.40
2023-02-03T15:14:24.414Z,7.80
2023-02-03T15:17:00.389Z,8.20
2023-02-03T15:19:35.265Z,4.72
2023-02-03T15:22:22.039Z,8.10
2023-02-03T15:24:53.910Z,5.18
2023-02-03T15:27:25.628Z,6.03
2023-02-03T15:29:59.234Z,3.88
2023-02-03T15:32:36.617Z,3.75
2023-02-03T15:35:10.798Z,7.47
2023-02-03T15:37:50.699Z,5.40
2023-02-03T15:40:23.527Z,6.40
2023-02-03T15:43:00.118Z,4.47
2023-02-03T15:45:33.467Z,4.68
2023-02-03T15:48:10.677Z,4.57
2023-02-03T15:50:45.984Z,3.25
2023-02-03T15:53:22.661Z,4.38
2023-02-03T15:55:55.362Z,5.80
2023-02-03T15:58:28.737Z,5.40
2023-02-03T16:01:02.357Z,4.78
2023-02-03T16:03:40.232Z,4.28
2023-02-03T16:06:12.762Z,8.13
2023-02-03T16:08:46.782Z,3.65
2023-02-03T16:11:31.780Z,5.90
2023-02-03T16:14:03.624Z,6.40
2023-02-03T16:16:39.754Z,3.70
2023-02-03T16:19:17.958Z,4.88
2023-02-03T16:21:57.366Z,6.25
2023-02-03T16:24:42.820Z,4.68
2023-02-03T16:27:34.540Z,5.45
2023-02-03T16:30:38.580Z,4.25
2023-02-03T16:33:29.565Z,3.88
2023-02-03T16:36:17.705Z,4.43
2023-02-03T16:39:00.673Z,4.40
2023-02-03T16:41:43.160Z,4.90
2023-02-03T16:44:27.122Z,6.90
2023-02-03T16:47:09.570Z,3.72
2023-02-03T16:49:52.019Z,5.55
2023-02-03T16:52:24.699Z,6.80
2023-02-03T16:54:55.088Z,4.13
2023-02-03T16:57:25.444Z,6.68
2023-02-03T16:59:55.471Z,3.63
2023-02-03T17:02:26.096Z,6.18
2023-02-03T17:04:56.170Z,4.35
2023-02-03T17:07:29.245Z,5.35
2023-02-03T17:09:59.588Z,5.90
2023-02-03T17:12:30.947Z,8.60
2023-02-03T17:15:00.966Z,6.00
2023-02-03T17:17:31.017Z,5.30
2023-02-03T17:20:02.002Z,5.70
2023-02-03T17:22:35.060Z,15.20
2023-02-03T17:25:05.275Z,8.05
2023-02-03T17:27:35.376Z,5.10
2023-02-03T17:30:07.284Z,4.05
2023-02-03T17:32:37.543Z,3.75
2023-02-03T17:35:07.918Z,4.05
2023-02-03T17:37:40.585Z,7.30
2023-02-03T17:54:06.372Z,7.18
2023-02-03T17:56:38.409Z,6.57
2023-02-03T17:59:09.042Z,5.18
2023-02-03T18:01:39.100Z,5.43
2023-02-03T18:04:09.575Z,4.25
2023-02-03T18:06:39.746Z,8.52
2023-02-03T18:09:15.856Z,6.68
2023-02-03T18:11:46.311Z,8.18
2023-02-03T18:14:18.234Z,6.07
2023-02-03T18:16:48.851Z,9.35
2023-02-03T18:19:19.718Z,10.80
2023-02-03T18:21:49.785Z,5.97
2023-02-03T18:24:27.907Z,8.50
2023-02-03T18:27:00.384Z,7.22
2023-02-03T18:29:31.389Z,9.60
2023-02-03T18:32:01.433Z,8.70
2023-02-03T18:34:31.624Z,8.07
2023-02-03T18:37:01.620Z,6.95
2023-02-03T18:39:34.437Z,4.97
2023-02-03T18:42:04.697Z,7.35
2023-02-03T18:44:34.840Z,8.52
2023-02-03T18:47:07.125Z,8.43
2023-02-03T18:49:38.458Z,6.70
2023-02-03T18:52:08.671Z,8.45
2023-02-03T18:54:41.452Z,2.75
2023-02-03T18:57:13.360Z,5.85
2023-02-03T18:59:44.068Z,3.40
2023-02-03T19:02:14.626Z,4.95
2023-02-03T19:04:44.708Z,5.65
2023-02-03T19:07:15.107Z,6.53
2023-02-03T19:09:47.998Z,6.72
2023-02-03T19:12:18.105Z,4.80
2023-02-03T19:14:48.406Z,4.47
2023-02-03T19:17:18.430Z,8.60
2023-02-03T19:19:48.536Z,4.07
2023-02-03T19:22:18.847Z,4.57
2023-02-03T19:24:51.541Z,6.20
2023-02-03T19:27:21.603Z,5.35
2023-02-03T19:29:51.738Z,5.38
2023-02-03T19:32:22.070Z,6.57
2023-02-03T19:34:52.195Z,5.20
2023-02-03T19:37:22.312Z,3.85
2023-02-03T19:39:55.301Z,5.32
2023-02-03T19:42:25.520Z,7.32
2023-02-03T19:44:56.687Z,6.38
2023-02-03T19:49:56.463Z,5.32
2023-02-03T19:52:26.710Z,8.55
2023-02-03T19:54:59.392Z,9.32
2023-02-03T19:57:29.899Z,6.00
2023-02-03T20:00:00.160Z,7.43
2023-02-03T20:02:30.465Z,6.95
2023-02-03T20:05:00.843Z,6.97
2023-02-03T20:07:33.894Z,7.97
2023-02-03T20:10:07.429Z,8.90
2023-02-03T20:12:37.562Z,6.25
2023-02-03T20:15:08.682Z,9.35
2023-02-03T20:20:09.358Z,7.32
2023-02-03T20:22:39.442Z,5.82
2023-02-03T20:25:12.633Z,5.07
2023-02-03T20:27:42.830Z,7.25
2023-02-03T20:30:14.224Z,7.63
2023-02-03T20:32:44.404Z,6.57
2023-02-03T20:35:14.718Z,7.00
2023-02-03T20:37:44.802Z,8.80
2023-02-03T20:40:19.740Z,10.05
2023-02-03T20:42:50.340Z,7.65
2023-02-03T20:45:22.355Z,7.70
2023-02-03T20:47:53.092Z,7.13
2023-02-03T20:50:31.678Z,12.13
2023-02-03T20:53:15.326Z,10.45
2023-02-03T20:55:48.245Z,12.10
2023-02-03T20:58:23.381Z,8.27
2023-02-03T21:00:57.278Z,10.52
2023-02-03T21:03:40.510Z,13.38
2023-02-03T21:06:16.873Z,9.13
2023-02-03T21:08:47.563Z,11.13
2023-02-03T21:11:26.684Z,9.23
2023-02-03T21:13:57.073Z,10.20
2023-02-03T21:16:28.422Z,12.10
2023-02-03T21:19:02.455Z,9.65
2023-02-03T21:21:38.274Z,9.55
2023-02-03T21:24:26.224Z,11.27
2023-02-03T21:26:59.868Z,10.27
2023-02-03T21:29:34.436Z,8.73
2023-02-03T21:32:04.614Z,8.18
2023-02-03T21:34:36.014Z,10.77
2023-02-03T21:37:17.591Z,12.35
2023-02-03T21:39:48.721Z,7.32
2023-02-03T21:45:45.821Z,11.30
2023-02-03T21:48:38.312Z,9.77
2023-02-03T21:51:17.943Z,11.82
2023-02-03T21:53:52.707Z,12.18
2023-02-03T21:56:24.808Z,10.05
2023-02-03T21:59:00.485Z,9.88
2023-02-03T22:01:38.406Z,11.95
2023-02-03T22:04:08.917Z,14.65
2023-02-03T22:06:45.543Z,8.98
2023-02-03T22:09:17.131Z,12.10
2023-02-03T22:11:47.575Z,9.27
2023-02-03T22:14:22.366Z,7.97
2023-02-03T22:16:52.839Z,12.68
2023-02-03T22:19:23.208Z,11.50
2023-02-03T22:21:53.382Z,10.80
2023-02-03T22:24:23.468Z,10.68
2023-02-03T22:26:55.192Z,8.88
2023-02-03T22:29:27.779Z,9.40
2023-02-03T22:31:57.991Z,11.80
2023-02-03T22:34:28.253Z,10.45
2023-02-03T22:37:00.202Z,9.15
2023-02-03T22:39:30.229Z,8.77
2023-02-03T22:42:00.539Z,10.32
2023-02-03T22:44:33.182Z,12.13
2023-02-03T22:47:03.382Z,10.40
2023-02-03T22:49:33.385Z,13.95
2023-02-03T22:52:03.630Z,12.23
2023-02-03T22:54:33.934Z,13.68
2023-02-03T22:57:04.121Z,11.98
2023-02-03T22:59:36.769Z,11.90
2023-02-03T23:02:06.777Z,12.95
2023-02-03T23:04:36.892Z,15.80
2023-02-03T23:07:06.905Z,13.60
2023-02-03T23:09:37.411Z,12.60
2023-02-03T23:12:08.307Z,12.65
2023-02-03T23:14:40.967Z,14.63
2023-02-03T23:17:11.142Z,14.63
2023-02-03T23:19:41.145Z,14.52
2023-02-03T23:22:11.153Z,19.60
2023-02-03T23:24:41.245Z,16.55
2023-02-03T23:27:11.418Z,13.35
2023-02-03T23:29:44.079Z,11.23
2023-02-03T23:32:14.355Z,15.98
2023-02-03T23:34:56.747Z,16.77
2023-02-03T23:37:27.047Z,14.35
2023-02-03T23:39:57.345Z,15.63
2023-02-03T23:42:27.487Z,15.68
2023-02-03T23:45:00.183Z,18.65
2023-02-03T23:47:30.412Z,14.50
2023-02-03T23:50:00.456Z,18.38
2023-02-03T23:52:35.650Z,18.65
2023-02-03T23:55:07.897Z,18.83
2023-02-03T23:57:38.144Z,18.33
